sensor_id;sensor_type;location;lat;lon;timestamp;P1;durP1;ratioP1;P2;durP2;ratioP2
69401;SDS011;56589;51.992;5.924;2024-02-14T00:02:21;3.25;;;2.00;;
69401;SDS011;56589;51.992;5.924;2024-02-14T00:04:47;4.10;;;2.25;;
69401;SDS011;56589;51.992;5.924;2024-02-14T00:07:13;2.88;;;1.95;;
69401;SDS011;56589;51.992;5.924;2024-02-14T00:09:38;4.10;;;1.80;;
69401;SDS011;56589;51.992;5.924;2024-02-14T00:12:04;3.72;;;1.70;;
69401;SDS011;56589;51.992;5.924;2024-02-14T00:14:31;5.63;;;2.22;;
69401;SDS011;56589;51.992;5.924;2024-02-14T00:16:57;5.00;;;2.15;;
69401;SDS011;56589;51.992;5.924;2024-02-14T00:19:25;3.10;;;1.80;;
69401;SDS011;56589;51.992;5.924;2024-02-14T00:21:51;3.00;;;1.98;;
69401;SDS011;56589;51.992;5.924;2024-02-14T00:24:17;4.32;;;1.98;;
69401;SDS011;56589;51.992;5.924;2024-02-14T00:26:42;4.88;;;1.90;;
69401;SDS011;56589;51.992;5.924;2024-02-14T00:29:10;2.58;;;1.90;;
69401;SDS011;56589;51.992;5.924;2024-02-14T00:31:35;3.28;;;1.90;;
69401;SDS011;56589;51.992;5.924;2024-02-14T00:34:01;3.47;;;1.88;;
69401;SDS011;56589;51.992;5.924;2024-02-14T00:36:30;3.00;;;1.90;;
69401;SDS011;56589;51.992;5.924;2024-02-14T00:38:55;3.63;;;2.03;;
69401;SDS011;56589;51.992;5.924;2024-02-14T00:41:21;4.78;;;2.38;;
69401;SDS011;56589;51.992;5.924;2024-02-14T00:43:47;4.13;;;1.90;;
69401;SDS011;56589;51.992;5.924;2024-02-14T00:46:15;2.90;;;1.80;;
69401;SDS011;56589;51.992;5.924;2024-02-14T00:48:41;4.60;;;1.90;;
69401;SDS011;56589;51.992;5.924;2024-02-14T00:51:07;3.22;;;1.90;;
69401;SDS011;56589;51.992;5.924;2024-02-14T00:53:35;3.67;;;2.17;;
69401;SDS011;56589;51.992;5.924;2024-02-14T00:56:01;7.55;;;2.20;;
69401;SDS011;56589;51.992;5.924;2024-02-14T00:58:27;4.40;;;2.33;;
69401;SDS011;56589;51.992;5.924;2024-02-14T01:00:52;3.97;;;2.38;;
69401;SDS011;56589;51.992;5.924;2024-02-14T01:03:18;2.38;;;2.00;;
69401;SDS011;56589;51.992;5.924;2024-02-14T01:05:44;7.25;;;2.30;;
69401;SDS011;56589;51.992;5.924;2024-02-14T01:08:10;3.70;;;2.30;;
69401;SDS011;56589;51.992;5.924;2024-02-14T01:10:38;5.22;;;2.15;;
69401;SDS011;56589;51.992;5.924;2024-02-14T01:13:04;3.42;;;2.10;;
69401;SDS011;56589;51.992;5.924;2024-02-14T01:15:30;6.60;;;2.65;;
69401;SDS011;56589;51.992;5.924;2024-02-14T01:17:56;6.00;;;2.42;;
69401;SDS011;56589;51.992;5.924;2024-02-14T01:20:22;6.20;;;2.60;;
69401;SDS011;56589;51.992;5.924;2024-02-14T01:22:48;4.03;;;2.60;;
69401;SDS011;56589;51.992;5.924;2024-02-14T01:25:14;4.20;;;2.30;;
69401;SDS011;56589;51.992;5.924;2024-02-14T01:27:42;5.82;;;3.03;;
69401;SDS011;56589;51.992;5.924;2024-02-14T01:30:09;3.67;;;2.42;;
69401;SDS011;56589;51.992;5.924;2024-02-14T01:32:36;7.05;;;2.70;;
69401;SDS011;56589;51.992;5.924;2024-02-14T01:35:03;4.38;;;2.88;;
69401;SDS011;56589;51.992;5.924;2024-02-14T01:37:29;5.07;;;2.67;;
69401;SDS011;56589;51.992;5.924;2024-02-14T01:39:55;4.40;;;2.63;;
69401;SDS011;56589;51.992;5.924;2024-02-14T01:42:21;5.03;;;3.00;;
69401;SDS011;56589;51.992;5.924;2024-02-14T01:44:49;4.10;;;2.50;;
69401;SDS011;56589;51.992;5.924;2024-02-14T01:47:15;4.43;;;3.05;;
69401;SDS011;56589;51.992;5.924;2024-02-14T01:49:41;6.60;;;2.90;;
69401;SDS011;56589;51.992;5.924;2024-02-14T01:52:07;4.53;;;2.60;;
69401;SDS011;56589;51.992;5.924;2024-02-14T01:54:33;7.95;;;2.53;;
69401;SDS011;56589;51.992;5.924;2024-02-14T01:57:00;5.20;;;3.28;;
69401;SDS011;56589;51.992;5.924;2024-02-14T01:59:26;5.60;;;2.72;;
69401;SDS011;56589;51.992;5.924;2024-02-14T02:01:56;5.68;;;2.72;;
69401;SDS011;56589;51.992;5.924;2024-02-14T02:04:22;5.90;;;3.30;;
69401;SDS011;56589;51.992;5.924;2024-02-14T02:06:47;5.78;;;3.00;;
69401;SDS011;56589;51.992;5.924;2024-02-14T02:09:13;4.43;;;2.75;;
69401;SDS011;56589;51.992;5.924;2024-02-14T02:11:42;8.18;;;2.83;;
69401;SDS011;56589;51.992;5.924;2024-02-14T02:14:11;4.03;;;2.90;;
69401;SDS011;56589;51.992;5.924;2024-02-14T02:16:37;5.03;;;2.80;;
69401;SDS011;56589;51.992;5.924;2024-02-14T02:19:05;7.78;;;3.30;;
69401;SDS011;56589;51.992;5.924;2024-02-14T02:21:31;6.85;;;2.90;;
69401;SDS011;56589;51.992;5.924;2024-02-14T02:23:59;5.38;;;3.35;;
69401;SDS011;56589;51.992;5.924;2024-02-14T02:26:25;6.97;;;3.78;;
69401;SDS011;56589;51.992;5.924;2024-02-14T02:28:51;6.88;;;3.78;;
69401;SDS011;56589;51.992;5.924;2024-02-14T02:31:17;6.47;;;3.28;;
69401;SDS011;56589;51.992;5.924;2024-02-14T02:33:43;6.63;;;3.40;;
69401;SDS011;56589;51.992;5.924;2024-02-14T02:36:09;9.18;;;3.55;;
69401;SDS011;56589;51.992;5.924;2024-02-14T02:38:35;5.03;;;3.05;;
69401;SDS011;56589;51.992;5.924;2024-02-14T02:41:03;4.68;;;3.20;;
69401;SDS011;56589;51.992;5.924;2024-02-14T02:43:30;3.65;;;3.00;;
69401;SDS011;56589;51.992;5.924;2024-02-14T02:45:55;6.30;;;3.22;;
69401;SDS011;56589;51.992;5.924;2024-02-14T02:48:21;5.40;;;3.10;;
69401;SDS011;56589;51.992;5.924;2024-02-14T02:50:47;5.72;;;3.28;;
69401;SDS011;56589;51.992;5.924;2024-02-14T02:53:13;6.95;;;3.50;;
69401;SDS011;56589;51.992;5.924;2024-02-14T02:55:38;7.13;;;3.40;;
69401;SDS011;56589;51.992;5.924;2024-02-14T02:58:07;5.95;;;3.17;;
69401;SDS011;56589;51.992;5.924;2024-02-14T03:00:33;5.15;;;3.47;;
69401;SDS011;56589;51.992;5.924;2024-02-14T03:02:59;5.28;;;2.80;;
69401;SDS011;56589;51.992;5.924;2024-02-14T03:05:25;6.05;;;3.50;;
69401;SDS011;56589;51.992;5.924;2024-02-14T03:07:51;4.40;;;3.70;;
69401;SDS011;56589;51.992;5.924;2024-02-14T03:10:16;8.10;;;3.10;;
69401;SDS011;56589;51.992;5.924;2024-02-14T03:12:42;7.55;;;3.63;;
69401;SDS011;56589;51.992;5.924;2024-02-14T03:15:13;6.70;;;3.40;;
69401;SDS011;56589;51.992;5.924;2024-02-14T03:17:39;7.72;;;3.55;;
69401;SDS011;56589;51.992;5.924;2024-02-14T03:20:05;3.83;;;3.10;;
69401;SDS011;56589;51.992;5.924;2024-02-14T03:22:32;7.53;;;3.42;;
69401;SDS011;56589;51.992;5.924;2024-02-14T03:24:58;6.47;;;3.22;;
69401;SDS011;56589;51.992;5.924;2024-02-14T03:27:24;5.95;;;3.00;;
69401;SDS011;56589;51.992;5.924;2024-02-14T03:29:50;5.80;;;3.38;;
69401;SDS011;56589;51.992;5.924;2024-02-14T03:32:18;6.38;;;3.15;;
69401;SDS011;56589;51.992;5.924;2024-02-14T03:34:44;5.25;;;3.25;;
69401;SDS011;56589;51.992;5.924;2024-02-14T03:37:10;7.50;;;3.22;;
69401;SDS011;56589;51.992;5.924;2024-02-14T03:39:35;5.47;;;3.47;;
69401;SDS011;56589;51.992;5.924;2024-02-14T03:42:01;6.18;;;3.38;;
69401;SDS011;56589;51.992;5.924;2024-02-14T03:44:29;5.25;;;3.42;;
69401;SDS011;56589;51.992;5.924;2024-02-14T03:46:54;5.78;;;3.75;;
69401;SDS011;56589;51.992;5.924;2024-02-14T03:49:23;7.07;;;3.88;;
69401;SDS011;56589;51.992;5.924;2024-02-14T03:51:48;6.55;;;4.15;;
69401;SDS011;56589;51.992;5.924;2024-02-14T03:54:14;7.75;;;4.30;;
69401;SDS011;56589;51.992;5.924;2024-02-14T03:56:40;5.68;;;4.18;;
69401;SDS011;56589;51.992;5.924;2024-02-14T03:59:06;9.63;;;3.65;;
69401;SDS011;56589;51.992;5.924;2024-02-14T04:01:31;4.93;;;4.03;;
69401;SDS011;56589;51.992;5.924;2024-02-14T04:03:57;12.57;;;4.72;;
69401;SDS011;56589;51.992;5.924;2024-02-14T04:06:25;7.70;;;4.80;;
69401;SDS011;56589;51.992;5.924;2024-02-14T04:08:51;7.10;;;4.63;;
69401;SDS011;56589;51.992;5.924;2024-02-14T04:11:17;8.48;;;4.82;;
69401;SDS011;56589;51.992;5.924;2024-02-14T04:13:43;7.20;;;4.88;;
69401;SDS011;56589;51.992;5.924;2024-02-14T04:16:08;6.53;;;4.55;;
69401;SDS011;56589;51.992;5.924;2024-02-14T04:18:34;8.30;;;4.45;;
69401;SDS011;56589;51.992;5.924;2024-02-14T04:21:00;7.50;;;5.22;;
69401;SDS011;56589;51.992;5.924;2024-02-14T04:23:28;9.18;;;5.40;;
69401;SDS011;56589;51.992;5.924;2024-02-14T04:25:54;10.32;;;5.57;;
69401;SDS011;56589;51.992;5.924;2024-02-14T04:28:20;10.13;;;5.15;;
69401;SDS011;56589;51.992;5.924;2024-02-14T04:30:45;10.48;;;4.97;;
69401;SDS011;56589;51.992;5.924;2024-02-14T04:33:11;9.35;;;4.80;;
69401;SDS011;56589;51.992;5.924;2024-02-14T04:35:37;9.68;;;5.50;;
69401;SDS011;56589;51.992;5.924;2024-02-14T04:38:03;8.07;;;4.82;;
69401;SDS011;56589;51.992;5.924;2024-02-14T04:40:31;9.90;;;6.28;;
69401;SDS011;56589;51.992;5.924;2024-02-14T04:42:57;9.32;;;5.35;;
69401;SDS011;56589;51.992;5.924;2024-02-14T04:45:23;12.45;;;5.53;;
69401;SDS011;56589;51.992;5.924;2024-02-14T04:47:49;9.10;;;5.03;;
69401;SDS011;56589;51.992;5.924;2024-02-14T04:50:15;7.65;;;5.20;;
69401;SDS011;56589;51.992;5.924;2024-02-14T04:52:40;8.70;;;6.25;;
69401;SDS011;56589;51.992;5.924;2024-02-14T04:55:07;10.05;;;6.32;;
69401;SDS011;56589;51.992;5.924;2024-02-14T04:57:36;11.55;;;6.63;;
69401;SDS011;56589;51.992;5.924;2024-02-14T05:00:02;10.82;;;5.72;;
69401;SDS011;56589;51.992;5.924;2024-02-14T05:02:29;8.88;;;5.88;;
69401;SDS011;56589;51.992;5.924;2024-02-14T05:04:55;10.18;;;5.97;;
69401;SDS011;56589;51.992;5.924;2024-02-14T05:07:21;8.48;;;5.88;;
69401;SDS011;56589;51.992;5.924;2024-02-14T05:09:46;12.32;;;6.35;;
69401;SDS011;56589;51.992;5.924;2024-02-14T05:12:12;12.70;;;6.10;;
69401;SDS011;56589;51.992;5.924;2024-02-14T05:14:40;10.35;;;5.90;;
69401;SDS011;56589;51.992;5.924;2024-02-14T05:17:06;10.38;;;5.95;;
69401;SDS011;56589;51.992;5.924;2024-02-14T05:19:32;14.35;;;6.82;;
69401;SDS011;56589;51.992;5.924;2024-02-14T05:21:58;9.32;;;5.97;;
69401;SDS011;56589;51.992;5.924;2024-02-14T05:24:24;11.38;;;6.47;;
69401;SDS011;56589;51.992;5.924;2024-02-14T05:26:50;8.18;;;5.97;;
69401;SDS011;56589;51.992;5.924;2024-02-14T05:29:15;9.07;;;6.25;;
69401;SDS011;56589;51.992;5.924;2024-02-14T05:31:47;8.60;;;6.15;;
69401;SDS011;56589;51.992;5.924;2024-02-14T05:34:13;8.73;;;6.18;;
69401;SDS011;56589;51.992;5.924;2024-02-14T05:36:39;10.35;;;6.25;;
69401;SDS011;56589;51.992;5.924;2024-02-14T05:39:05;11.43;;;6.13;;
69401;SDS011;56589;51.992;5.924;2024-02-14T05:41:31;11.02;;;6.18;;
69401;SDS011;56589;51.992;5.924;2024-02-14T05:43:56;10.68;;;6.63;;
69401;SDS011;56589;51.992;5.924;2024-02-14T05:46:22;10.05;;;5.82;;
69401;SDS011;56589;51.992;5.924;2024-02-14T05:48:50;12.90;;;6.30;;
69401;SDS011;56589;51.992;5.924;2024-02-14T05:51:16;10.10;;;6.35;;
69401;SDS011;56589;51.992;5.924;2024-02-14T05:53:42;11.25;;;6.13;;
69401;SDS011;56589;51.992;5.924;2024-02-14T05:56:08;10.93;;;6.38;;
69401;SDS011;56589;51.992;5.924;2024-02-14T05:58:34;10.70;;;5.95;;
69401;SDS011;56589;51.992;5.924;2024-02-14T06:00:59;10.60;;;6.20;;
69401;SDS011;56589;51.992;5.924;2024-02-14T06:03:25;9.55;;;5.80;;
69401;SDS011;56589;51.992;5.924;2024-02-14T06:05:53;8.30;;;5.88;;
69401;SDS011;56589;51.992;5.924;2024-02-14T06:08:19;10.95;;;6.10;;
69401;SDS011;56589;51.992;5.924;2024-02-14T06:10:45;7.00;;;5.60;;
69401;SDS011;56589;51.992;5.924;2024-02-14T06:13:11;7.88;;;5.80;;
69401;SDS011;56589;51.992;5.924;2024-02-14T06:15:37;13.60;;;6.22;;
69401;SDS011;56589;51.992;5.924;2024-02-14T06:18:03;10.15;;;5.72;;
69401;SDS011;56589;51.992;5.924;2024-02-14T06:20:29;7.68;;;5.38;;
69401;SDS011;56589;51.992;5.924;2024-02-14T06:22:57;8.32;;;5.53;;
69401;SDS011;56589;51.992;5.924;2024-02-14T06:25:23;9.13;;;5.68;;
69401;SDS011;56589;51.992;5.924;2024-02-14T06:27:48;9.30;;;6.07;;
69401;SDS011;56589;51.992;5.924;2024-02-14T06:30:15;9.90;;;5.75;;
69401;SDS011;56589;51.992;5.924;2024-02-14T06:32:41;6.95;;;5.65;;
69401;SDS011;56589;51.992;5.924;2024-02-14T06:35:06;9.90;;;6.88;;
69401;SDS011;56589;51.992;5.924;2024-02-14T06:37:32;12.48;;;6.03;;
69401;SDS011;56589;51.992;5.924;2024-02-14T06:40:01;7.10;;;6.10;;
69401;SDS011;56589;51.992;5.924;2024-02-14T06:42:27;8.43;;;5.38;;
69401;SDS011;56589;51.992;5.924;2024-02-14T06:44:52;7.13;;;5.55;;
69401;SDS011;56589;51.992;5.924;2024-02-14T06:47:18;11.65;;;6.88;;
69401;SDS011;56589;51.992;5.924;2024-02-14T06:49:44;14.80;;;7.38;;
69401;SDS011;56589;51.992;5.924;2024-02-14T06:52:10;11.13;;;7.18;;
69401;SDS011;56589;51.992;5.924;2024-02-14T06:54:36;10.75;;;5.88;;
69401;SDS011;56589;51.992;5.924;2024-02-14T06:57:04;7.32;;;5.47;;
69401;SDS011;56589;51.992;5.924;2024-02-14T06:59:30;11.82;;;5.47;;
69401;SDS011;56589;51.992;5.924;2024-02-14T07:01:56;6.63;;;5.72;;
69401;SDS011;56589;51.992;5.924;2024-02-14T07:04:21;6.93;;;5.55;;
69401;SDS011;56589;51.992;5.924;2024-02-14T07:06:47;8.90;;;5.57;;
69401;SDS011;56589;51.992;5.924;2024-02-14T07:09:13;8.02;;;5.53;;
69401;SDS011;56589;51.992;5.924;2024-02-14T07:11:39;10.70;;;5.60;;
69401;SDS011;56589;51.992;5.924;2024-02-14T07:14:07;7.88;;;5.50;;
69401;SDS011;56589;51.992;5.924;2024-02-14T07:16:33;10.18;;;5.25;;
69401;SDS011;56589;51.992;5.924;2024-02-14T07:18:59;7.53;;;5.60;;
69401;SDS011;56589;51.992;5.924;2024-02-14T07:21:24;9.73;;;6.00;;
69401;SDS011;56589;51.992;5.924;2024-02-14T07:23:50;9.55;;;5.78;;
69401;SDS011;56589;51.992;5.924;2024-02-14T07:26:16;10.07;;;6.53;;
69401;SDS011;56589;51.992;5.924;2024-02-14T07:28:42;7.80;;;5.68;;
69401;SDS011;56589;51.992;5.924;2024-02-14T07:31:10;9.27;;;5.95;;
69401;SDS011;56589;51.992;5.924;2024-02-14T07:33:36;9.65;;;6.20;;
69401;SDS011;56589;51.992;5.924;2024-02-14T07:36:02;8.30;;;5.95;;
69401;SDS011;56589;51.992;5.924;2024-02-14T07:38:28;7.53;;;5.60;;
69401;SDS011;56589;51.992;5.924;2024-02-14T07:40:54;10.50;;;6.60;;
69401;SDS011;56589;51.992;5.924;2024-02-14T07:43:19;8.65;;;6.85;;
69401;SDS011;56589;51.992;5.924;2024-02-14T07:45:45;10.35;;;6.72;;
69401;SDS011;56589;51.992;5.924;2024-02-14T07:48:14;9.90;;;6.43;;
69401;SDS011;56589;51.992;5.924;2024-02-14T07:50:39;9.55;;;6.10;;
69401;SDS011;56589;51.992;5.924;2024-02-14T07:53:05;12.60;;;6.53;;
69401;SDS011;56589;51.992;5.924;2024-02-14T07:55:31;11.05;;;7.00;;
69401;SDS011;56589;51.992;5.924;2024-02-14T07:57:57;11.52;;;7.47;;
69401;SDS011;56589;51.992;5.924;2024-02-14T08:00:23;13.63;;;7.85;;
69401;SDS011;56589;51.992;5.924;2024-02-14T08:02:48;10.98;;;6.88;;
69401;SDS011;56589;51.992;5.924;2024-02-14T08:05:17;12.60;;;7.40;;
69401;SDS011;56589;51.992;5.924;2024-02-14T08:07:44;13.50;;;7.28;;
69401;SDS011;56589;51.992;5.924;2024-02-14T08:10:10;10.52;;;7.40;;
69401;SDS011;56589;51.992;5.924;2024-02-14T08:12:36;11.63;;;7.55;;
69401;SDS011;56589;51.992;5.924;2024-02-14T08:15:02;9.85;;;7.22;;
69401;SDS011;56589;51.992;5.924;2024-02-14T08:17:28;10.73;;;7.22;;
69401;SDS011;56589;51.992;5.924;2024-02-14T08:19:54;13.50;;;7.65;;
69401;SDS011;56589;51.992;5.924;2024-02-14T08:22:22;10.88;;;6.63;;
69401;SDS011;56589;51.992;5.924;2024-02-14T08:24:48;12.50;;;6.85;;
69401;SDS011;56589;51.992;5.924;2024-02-14T08:27:14;11.95;;;6.70;;
69401;SDS011;56589;51.992;5.924;2024-02-14T08:29:40;8.75;;;6.55;;
69401;SDS011;56589;51.992;5.924;2024-02-14T08:32:06;13.82;;;6.82;;
69401;SDS011;56589;51.992;5.924;2024-02-14T08:34:31;10.77;;;6.57;;
69401;SDS011;56589;51.992;5.924;2024-02-14T08:36:57;7.32;;;5.45;;
69401;SDS011;56589;51.992;5.924;2024-02-14T08:39:25;8.60;;;6.03;;
69401;SDS011;56589;51.992;5.924;2024-02-14T08:41:51;10.43;;;6.20;;
69401;SDS011;56589;51.992;5.924;2024-02-14T08:44:17;10.57;;;6.32;;
69401;SDS011;56589;51.992;5.924;2024-02-14T08:46:43;13.95;;;6.25;;
69401;SDS011;56589;51.992;5.924;2024-02-14T08:49:08;10.20;;;5.57;;
69401;SDS011;56589;51.992;5.924;2024-02-14T08:51:34;9.55;;;5.40;;
69401;SDS011;56589;51.992;5.924;2024-02-14T08:54:00;8.27;;;5.60;;
69401;SDS011;56589;51.992;5.924;2024-02-14T08:56:28;9.07;;;5.95;;
69401;SDS011;56589;51.992;5.924;2024-02-14T08:58:54;9.10;;;5.95;;
69401;SDS011;56589;51.992;5.924;2024-02-14T09:01:20;8.48;;;5.68;;
69401;SDS011;56589;51.992;5.924;2024-02-14T09:03:45;8.82;;;5.28;;
69401;SDS011;56589;51.992;5.924;2024-02-14T09:06:11;7.00;;;5.47;;
69401;SDS011;56589;51.992;5.924;2024-02-14T09:08:37;9.52;;;5.50;;
69401;SDS011;56589;51.992;5.924;2024-02-14T09:11:03;7.22;;;5.28;;
69401;SDS011;56589;51.992;5.924;2024-02-14T09:13:31;11.27;;;5.50;;
69401;SDS011;56589;51.992;5.924;2024-02-14T09:15:57;8.23;;;5.20;;
69401;SDS011;56589;51.992;5.924;2024-02-14T09:18:23;9.32;;;5.28;;
69401;SDS011;56589;51.992;5.924;2024-02-14T09:20:49;8.95;;;5.13;;
69401;SDS011;56589;51.992;5.924;2024-02-14T09:23:15;7.97;;;4.78;;
69401;SDS011;56589;51.992;5.924;2024-02-14T09:25:42;8.80;;;4.53;;
69401;SDS011;56589;51.992;5.924;2024-02-14T09:28:08;12.35;;;5.63;;
69401;SDS011;56589;51.992;5.924;2024-02-14T09:30:36;6.63;;;4.80;;
69401;SDS011;56589;51.992;5.924;2024-02-14T09:33:02;7.72;;;4.82;;
69401;SDS011;56589;51.992;5.924;2024-02-14T09:35:28;5.88;;;4.28;;
69401;SDS011;56589;51.992;5.924;2024-02-14T09:37:54;7.10;;;4.50;;
69401;SDS011;56589;51.992;5.924;2024-02-14T09:40:19;8.18;;;4.55;;
69401;SDS011;56589;51.992;5.924;2024-02-14T09:42:48;11.85;;;4.97;;
69401;SDS011;56589;51.992;5.924;2024-02-14T09:45:19;6.93;;;4.40;;
69401;SDS011;56589;51.992;5.924;2024-02-14T09:47:49;7.75;;;4.75;;
69401;SDS011;56589;51.992;5.924;2024-02-14T09:50:17;6.63;;;4.57;;
69401;SDS011;56589;51.992;5.924;2024-02-14T09:52:44;9.35;;;4.93;;
69401;SDS011;56589;51.992;5.924;2024-02-14T10:18:54;14.70;;;6.05;;
69401;SDS011;56589;51.992;5.924;2024-02-14T10:21:20;9.05;;;5.50;;
69401;SDS011;56589;51.992;5.924;2024-02-14T10:23:46;13.15;;;6.20;;
69401;SDS011;56589;51.992;5.924;2024-02-14T10:26:12;10.85;;;5.78;;
69401;SDS011;56589;51.992;5.924;2024-02-14T10:28:40;11.60;;;6.20;;
69401;SDS011;56589;51.992;5.924;2024-02-14T10:31:07;9.75;;;6.03;;
69401;SDS011;56589;51.992;5.924;2024-02-14T10:33:33;11.38;;;6.13;;
69401;SDS011;56589;51.992;5.924;2024-02-14T10:36:01;10.68;;;5.40;;
69401;SDS011;56589;51.992;5.924;2024-02-14T10:38:29;9.98;;;5.45;;
69401;SDS011;56589;51.992;5.924;2024-02-14T10:40:57;11.88;;;5.25;;
69401;SDS011;56589;51.992;5.924;2024-02-14T10:43:25;11.40;;;5.80;;
69401;SDS011;56589;51.992;5.924;2024-02-14T10:45:51;11.95;;;5.88;;
69401;SDS011;56589;51.992;5.924;2024-02-14T10:48:21;10.30;;;5.40;;
69401;SDS011;56589;51.992;5.924;2024-02-14T10:50:49;10.52;;;5.47;;
69401;SDS011;56589;51.992;5.924;2024-02-14T10:56:17;13.95;;;6.13;;
69401;SDS011;56589;51.992;5.924;2024-02-14T10:58:44;9.95;;;5.57;;
69401;SDS011;56589;51.992;5.924;2024-02-14T11:01:12;8.75;;;5.53;;
69401;SDS011;56589;51.992;5.924;2024-02-14T11:03:40;12.80;;;5.25;;
69401;SDS011;56589;51.992;5.924;2024-02-14T11:06:06;9.02;;;5.60;;
69401;SDS011;56589;51.992;5.924;2024-02-14T11:08:32;13.90;;;5.78;;
69401;SDS011;56589;51.992;5.924;2024-02-14T11:11:01;10.57;;;5.72;;
69401;SDS011;56589;51.992;5.924;2024-02-14T11:13:27;8.48;;;5.38;;
69401;SDS011;56589;51.992;5.924;2024-02-14T11:15:54;7.03;;;5.15;;
69401;SDS011;56589;51.992;5.924;2024-02-14T11:18:24;8.43;;;5.38;;
69401;SDS011;56589;51.992;5.924;2024-02-14T11:20:51;9.60;;;5.47;;
69401;SDS011;56589;51.992;5.924;2024-02-14T11:23:20;9.23;;;5.03;;
69401;SDS011;56589;51.992;5.924;2024-02-14T11:25:48;14.32;;;5.13;;
69401;SDS011;56589;51.992;5.924;2024-02-14T11:28:17;7.47;;;5.03;;
69401;SDS011;56589;51.992;5.924;2024-02-14T11:30:45;14.23;;;7.38;;
69401;SDS011;56589;51.992;5.924;2024-02-14T11:33:17;10.77;;;6.00;;
69401;SDS011;56589;51.992;5.924;2024-02-14T11:35:45;10.80;;;6.05;;
69401;SDS011;56589;51.992;5.924;2024-02-14T11:38:13;14.30;;;6.05;;
69401;SDS011;56589;51.992;5.924;2024-02-14T11:40:39;9.90;;;5.15;;
69401;SDS011;56589;51.992;5.924;2024-02-14T11:43:05;8.35;;;4.85;;
69401;SDS011;56589;51.992;5.924;2024-02-14T11:45:39;10.32;;;5.78;;
69401;SDS011;56589;51.992;5.924;2024-02-14T11:48:06;13.18;;;6.50;;
69401;SDS011;56589;51.992;5.924;2024-02-14T11:50:34;8.13;;;5.13;;
69401;SDS011;56589;51.992;5.924;2024-02-14T11:53:00;8.98;;;4.88;;
69401;SDS011;56589;51.992;5.924;2024-02-14T11:55:29;12.90;;;5.47;;
69401;SDS011;56589;51.992;5.924;2024-02-14T11:57:55;8.30;;;5.15;;
69401;SDS011;56589;51.992;5.924;2024-02-14T12:00:22;8.40;;;4.75;;
69401;SDS011;56589;51.992;5.924;2024-02-14T12:02:50;8.60;;;4.70;;
69401;SDS011;56589;51.992;5.924;2024-02-14T12:05:17;10.60;;;4.70;;
69401;SDS011;56589;51.992;5.924;2024-02-14T12:07:43;10.18;;;4.68;;
69401;SDS011;56589;51.992;5.924;2024-02-14T12:10:09;9.60;;;4.32;;
69401;SDS011;56589;51.992;5.924;2024-02-14T12:12:35;6.63;;;4.60;;
69401;SDS011;56589;51.992;5.924;2024-02-14T12:15:01;6.50;;;4.10;;
69401;SDS011;56589;51.992;5.924;2024-02-14T12:17:28;5.90;;;4.53;;
69401;SDS011;56589;51.992;5.924;2024-02-14T12:20:04;7.07;;;3.50;;
69401;SDS011;56589;51.992;5.924;2024-02-14T12:22:33;7.47;;;3.97;;
69401;SDS011;56589;51.992;5.924;2024-02-14T12:24:58;6.40;;;3.72;;
69401;SDS011;56589;51.992;5.924;2024-02-14T12:27:24;4.72;;;3.72;;
69401;SDS011;56589;51.992;5.924;2024-02-14T12:29:51;4.80;;;3.58;;
69401;SDS011;56589;51.992;5.924;2024-02-14T12:32:17;6.90;;;3.63;;
69401;SDS011;56589;51.992;5.924;2024-02-14T12:34:43;7.53;;;3.90;;
69401;SDS011;56589;51.992;5.924;2024-02-14T12:37:12;6.53;;;3.40;;
69401;SDS011;56589;51.992;5.924;2024-02-14T12:39:38;4.80;;;3.25;;
69401;SDS011;56589;51.992;5.924;2024-02-14T12:42:04;5.53;;;3.38;;
69401;SDS011;56589;51.992;5.924;2024-02-14T12:44:30;4.32;;;3.03;;
69401;SDS011;56589;51.992;5.924;2024-02-14T12:46:56;8.30;;;3.00;;
69401;SDS011;56589;51.992;5.924;2024-02-14T12:49:22;4.85;;;3.10;;
69401;SDS011;56589;51.992;5.924;2024-02-14T12:51:48;4.45;;;3.08;;
69401;SDS011;56589;51.992;5.924;2024-02-14T12:54:16;6.63;;;3.08;;
69401;SDS011;56589;51.992;5.924;2024-02-14T12:56:42;4.05;;;2.58;;
69401;SDS011;56589;51.992;5.924;2024-02-14T12:59:08;4.13;;;2.88;;
69401;SDS011;56589;51.992;5.924;2024-02-14T13:01:42;4.25;;;2.75;;
69401;SDS011;56589;51.992;5.924;2024-02-14T13:04:07;8.15;;;2.80;;
69401;SDS011;56589;51.992;5.924;2024-02-14T13:06:33;4.40;;;2.72;;
69401;SDS011;56589;51.992;5.924;2024-02-14T13:08:59;3.30;;;2.50;;
69401;SDS011;56589;51.992;5.924;2024-02-14T13:11:28;5.07;;;3.00;;
69401;SDS011;56589;51.992;5.924;2024-02-14T13:13:53;3.58;;;2.45;;
69401;SDS011;56589;51.992;5.924;2024-02-14T13:16:19;5.72;;;2.40;;
69401;SDS011;56589;51.992;5.924;2024-02-14T13:18:45;3.67;;;2.58;;
69401;SDS011;56589;51.992;5.924;2024-02-14T13:21:11;4.68;;;2.38;;
69401;SDS011;56589;51.992;5.924;2024-02-14T13:23:36;2.67;;;2.08;;
69401;SDS011;56589;51.992;5.924;2024-02-14T13:26:02;2.45;;;1.77;;
69401;SDS011;56589;51.992;5.924;2024-02-14T13:28:31;2.90;;;2.15;;
69401;SDS011;56589;51.992;5.924;2024-02-14T13:30:57;2.40;;;1.75;;
69401;SDS011;56589;51.992;5.924;2024-02-14T13:33:23;2.45;;;1.85;;
69401;SDS011;56589;51.992;5.924;2024-02-14T13:35:48;3.55;;;2.10;;
69401;SDS011;56589;51.992;5.924;2024-02-14T13:38:14;3.35;;;2.22;;
69401;SDS011;56589;51.992;5.924;2024-02-14T13:40:40;3.40;;;1.98;;
69401;SDS011;56589;51.992;5.924;2024-02-14T13:43:06;3.33;;;2.00;;
69401;SDS011;56589;51.992;5.924;2024-02-14T13:45:40;2.15;;;1.85;;
69401;SDS011;56589;51.992;5.924;2024-02-14T13:48:07;2.80;;;2.15;;
69401;SDS011;56589;51.992;5.924;2024-02-14T13:50:34;3.33;;;1.80;;
69401;SDS011;56589;51.992;5.924;2024-02-14T13:53:00;2.55;;;2.15;;
69401;SDS011;56589;51.992;5.924;2024-02-14T13:55:25;3.13;;;1.95;;
69401;SDS011;56589;51.992;5.924;2024-02-14T13:57:51;2.67;;;2.10;;
69401;SDS011;56589;51.992;5.924;2024-02-14T14:00:17;4.55;;;2.78;;
69401;SDS011;56589;51.992;5.924;2024-02-14T14:02:45;4.35;;;2.40;;
69401;SDS011;56589;51.992;5.924;2024-02-14T14:05:11;4.22;;;2.35;;
69401;SDS011;56589;51.992;5.924;2024-02-14T14:07:38;4.18;;;3.00;;
69401;SDS011;56589;51.992;5.924;2024-02-14T14:10:05;2.75;;;2.28;;
69401;SDS011;56589;51.992;5.924;2024-02-14T14:12:34;3.70;;;2.72;;
69401;SDS011;56589;51.992;5.924;2024-02-14T14:15:00;3.75;;;2.83;;
69401;SDS011;56589;51.992;5.924;2024-02-14T14:17:28;8.13;;;3.40;;
69401;SDS011;56589;51.992;5.924;2024-02-14T14:19:56;4.47;;;3.33;;
69401;SDS011;56589;51.992;5.924;2024-02-14T14:22:22;5.95;;;3.83;;
69401;SDS011;56589;51.992;5.924;2024-02-14T14:24:48;4.90;;;3.50;;
69401;SDS011;56589;51.992;5.924;2024-02-14T14:27:14;4.63;;;3.17;;
69401;SDS011;56589;51.992;5.924;2024-02-14T14:29:40;5.85;;;4.35;;
69401;SDS011;56589;51.992;5.924;2024-02-14T14:32:06;6.18;;;4.07;;
69401;SDS011;56589;51.992;5.924;2024-02-14T14:34:32;5.70;;;4.03;;
69401;SDS011;56589;51.992;5.924;2024-02-14T14:37:00;6.00;;;4.22;;
69401;SDS011;56589;51.992;5.924;2024-02-14T14:39:27;5.80;;;3.80;;
69401;SDS011;56589;51.992;5.924;2024-02-14T14:41:52;5.45;;;4.18;;
69401;SDS011;56589;51.992;5.924;2024-02-14T14:44:18;7.07;;;4.15;;
69401;SDS011;56589;51.992;5.924;2024-02-14T14:46:44;8.18;;;4.20;;
69401;SDS011;56589;51.992;5.924;2024-02-14T14:49:10;7.22;;;3.97;;
69401;SDS011;56589;51.992;5.924;2024-02-14T14:51:37;6.28;;;4.13;;
69401;SDS011;56589;51.992;5.924;2024-02-14T14:54:06;7.20;;;4.22;;
69401;SDS011;56589;51.992;5.924;2024-02-14T14:56:31;5.65;;;4.43;;
69401;SDS011;56589;51.992;5.924;2024-02-14T14:58:57;7.28;;;4.35;;
69401;SDS011;56589;51.992;5.924;2024-02-14T15:01:23;5.70;;;4.22;;
69401;SDS011;56589;51.992;5.924;2024-02-14T15:03:49;5.45;;;4.40;;
69401;SDS011;56589;51.992;5.924;2024-02-14T15:06:15;7.40;;;3.85;;
69401;SDS011;56589;51.992;5.924;2024-02-14T15:08:41;5.50;;;3.88;;